Time;durP1;ratioP1;P1;durP2;ratioP2;P2;SDS_P1;SDS_P2;PMS_P1;PMS_P2;Temp;Humidity;BMP_temperature;BMP_pressure;BME280_temperature;BME280_humidity;BME280_pressure;Samples;Min_cycle;Max_cycle;Signal;HPM_P1;HPM_P2
2022/06/25 00:00:34;;;;;;;0.60;0.60;;;17.70;99.90;;;;;;5110346;28;20512;-70
2022/06/25 00:03:00;;;;;;;;;;;17.50;99.90;;;;;;5110493;28;20115;-70
2022/06/25 00:05:28;;;;;;;0.70;0.70;;;17.50;99.90;;;;;;5107821;28;20367;-70
2022/06/25 00:07:58;;;;;;;1.15;1.05;;;17.40;99.90;;;;;;5095875;28;20478;-70
2022/06/25 00:10:25;;;;;;;0.80;0.80;;;17.50;99.90;;;;;;5108528;28;20529;-69
2022/06/25 00:12:51;;;;;;;0.80;0.80;;;17.70;99.90;;;;;;5110407;28;20059;-70
2022/06/25 00:15:16;;;;;;;;;;;17.70;99.90;;;;;;5111975;28;20085;-70
2022/06/25 00:17:42;;;;;;;1.15;0.90;;;17.60;99.90;;;;;;5111245;28;20390;-70
2022/06/25 00:20:09;;;;;;;0.90;0.88;;;17.40;99.90;;;;;;5094342;28;20061;-70
2022/06/25 00:22:35;;;;;;;1.10;1.00;;;17.50;99.90;;;;;;5108996;28;20047;-70
2022/06/25 00:25:02;;;;;;;1.00;0.90;;;17.40;99.90;;;;;;5109174;28;20063;-70
2022/06/25 00:27:28;;;;;;;0.70;0.70;;;17.40;99.90;;;;;;5108870;28;20051;-70
2022/06/25 00:29:53;;;;;;;;;;;17.60;99.90;;;;;;5109504;28;20086;-70
2022/06/25 00:32:19;;;;;;;0.80;0.80;;;17.40;99.90;;;;;;5111234;28;19959;-70
2022/06/25 00:34:45;;;;;;;;;;;17.60;99.90;;;;;;5111741;28;20071;-70
2022/06/25 00:37:11;;;;;;;0.82;0.82;;;17.60;99.90;;;;;;5110870;28;19931;-70
2022/06/25 00:39:37;;;;;;;0.70;0.70;;;17.50;99.90;;;;;;5093906;28;20351;-70
2022/06/25 00:42:09;;;;;;;0.77;0.77;;;17.30;99.90;;;;;;5091659;28;20075;-70
2022/06/25 00:44:35;;;;;;;0.70;0.70;;;17.30;99.90;;;;;;5113248;27;20414;-71
2022/06/25 00:47:01;;;;;;;;;;;17.50;99.90;;;;;;5084368;28;20055;-70
2022/06/25 00:49:27;;;;;;;0.70;0.70;;;17.30;99.90;;;;;;5102144;28;19923;-71
2022/06/25 00:51:54;;;;;;;0.63;0.63;;;17.30;99.90;;;;;;5096035;28;20207;-70
2022/06/25 00:54:20;;;;;;;0.60;0.60;;;17.20;99.90;;;;;;5101539;28;20497;-71
2022/06/25 00:56:51;;;;;;;0.80;0.80;;;17.20;99.90;;;;;;5096652;28;20042;-71
2022/06/25 00:59:23;;;;;;;0.82;0.82;;;17.20;99.90;;;;;;5110227;28;20078;-71
2022/06/25 01:01:49;;;;;;;0.50;0.50;;;17.30;99.90;;;;;;5108509;28;20214;-70
2022/06/25 01:04:14;;;;;;;;;;;17.20;99.90;;;;;;5105645;28;20479;-71
2022/06/25 01:06:41;;;;;;;0.57;0.50;;;17.10;99.90;;;;;;5108128;28;19998;-71
2022/06/25 01:09:07;;;;;;;0.77;0.77;;;17.30;99.90;;;;;;5106621;28;20390;-71
2022/06/25 01:11:32;;;;;;;;;;;17.10;99.90;;;;;;5092643;28;20055;-71
2022/06/25 01:13:58;;;;;;;1.33;1.02;;;17.20;99.90;;;;;;5108025;28;19959;-71
2022/06/25 01:16:24;;;;;;;1.10;0.93;;;17.10;99.90;;;;;;5109968;28;20035;-71
2022/06/25 01:18:50;;;;;;;0.85;0.80;;;17.20;99.90;;;;;;5110025;28;20050;-71
2022/06/25 01:21:16;;;;;;;1.23;1.10;;;17.10;99.90;;;;;;5099830;28;20073;-71
2022/06/25 01:23:42;;;;;;;;;;;17.20;99.90;;;;;;5107604;28;20126;-71
2022/06/25 01:26:07;;;;;;;1.10;1.00;;;17.00;99.90;;;;;;5106719;28;20018;-71
2022/06/25 01:28:33;;;;;;;;;;;17.00;99.90;;;;;;5107118;28;20112;-71
2022/06/25 01:30:58;;;;;;;1.08;1.00;;;17.10;99.90;;;;;;5108901;28;19942;-71
2022/06/25 01:33:24;;;;;;;0.88;0.88;;;16.90;99.90;;;;;;5108623;28;20039;-71
2022/06/25 01:35:50;;;;;;;1.02;0.93;;;16.90;99.90;;;;;;5107566;28;20067;-71
2022/06/25 01:38:16;;;;;;;0.70;0.70;;;16.80;99.90;;;;;;5109903;28;20484;-71
2022/06/25 01:40:42;;;;;;;;;;;17.00;99.90;;;;;;5109301;28;20044;-71
2022/06/25 01:43:07;;;;;;;1.15;1.05;;;16.80;99.90;;;;;;5108765;28;19919;-71
2022/06/25 01:45:35;;;;;;;;;;;17.00;99.90;;;;;;5091568;28;20062;-71
2022/06/25 01:48:02;;;;;;;1.23;1.10;;;17.00;99.90;;;;;;5104758;28;19929;-71
2022/06/25 01:50:28;;;;;;;1.17;1.05;;;16.90;99.90;;;;;;5109716;28;20048;-70
2022/06/25 01:52:54;;;;;;;0.98;0.90;;;16.90;99.90;;;;;;5105303;28;20043;-70
2022/06/25 01:55:20;;;;;;;0.77;0.77;;;16.80;99.90;;;;;;5092084;28;20088;-70
2022/06/25 01:57:46;;;;;;;0.80;0.80;;;16.90;99.90;;;;;;5107747;28;20044;-71
2022/06/25 02:00:22;;;;;;;0.77;0.77;;;16.90;99.90;;;;;;5107573;28;20054;-71
2022/06/25 02:02:48;;;;;;;0.80;0.80;;;16.80;99.90;;;;;;5107794;28;20076;-71
2022/06/25 02:05:15;;;;;;;0.60;0.60;;;16.90;99.90;;;;;;5107320;28;20128;-71
2022/06/25 02:07:41;;;;;;;0.70;0.70;;;16.90;99.90;;;;;;5107585;28;20482;-71
2022/06/25 02:10:08;;;;;;;;;;;17.00;99.90;;;;;;5109095;28;20049;-71
2022/06/25 02:12:33;;;;;;;0.70;0.70;;;16.90;99.90;;;;;;5108436;28;19998;-71
2022/06/25 02:15:01;;;;;;;0.60;0.60;;;16.80;99.90;;;;;;5106312;28;20384;-71
2022/06/25 02:17:28;;;;;;;0.70;0.70;;;16.90;99.90;;;;;;5107777;28;20122;-71
2022/06/25 02:19:53;;;;;;;0.77;0.70;;;16.80;99.90;;;;;;5108059;28;20039;-71
2022/06/25 02:22:19;;;;;;;0.60;0.60;;;16.60;99.90;;;;;;5106908;28;20415;-71
2022/06/25 02:24:45;;;;;;;;;;;16.80;99.90;;;;;;5109577;28;20055;-71
2022/06/25 02:27:11;;;;;;;0.45;0.45;;;16.80;99.90;;;;;;5108609;28;20290;-71
2022/06/25 02:29:37;;;;;;;0.45;0.45;;;16.70;99.90;;;;;;5109609;28;20493;-71
2022/06/25 02:32:04;;;;;;;0.32;0.32;;;16.60;99.90;;;;;;5092558;28;20154;-71
2022/06/25 02:34:30;;;;;;;0.40;0.40;;;16.80;99.90;;;;;;5109612;28;20696;-71
2022/06/25 02:36:55;;;;;;;0.45;0.45;;;16.60;99.90;;;;;;5108050;28;20039;-71
2022/06/25 02:39:21;;;;;;;;;;;16.60;99.90;;;;;;5108278;28;20115;-71
2022/06/25 02:41:46;;;;;;;0.40;0.40;;;16.60;99.90;;;;;;5091664;28;19964;-71
2022/06/25 02:44:12;;;;;;;0.45;0.45;;;16.70;99.90;;;;;;5108813;28;20028;-71
2022/06/25 02:46:38;;;;;;;0.40;0.40;;;16.50;99.90;;;;;;5103836;28;20043;-71
2022/06/25 02:49:03;;;;;;;0.40;0.40;;;16.70;99.90;;;;;;5107267;28;20112;-71
2022/06/25 02:51:29;;;;;;;0.70;0.70;;;16.70;99.90;;;;;;5108018;28;20424;-71
2022/06/25 02:53:55;;;;;;;0.55;0.55;;;16.70;99.90;;;;;;5108474;28;20104;-71
2022/06/25 02:59:06;;;;;;;0.50;0.50;;;16.50;99.90;;;;;;5105617;28;20398;-71
2022/06/25 03:01:32;;;;;;;0.40;0.40;;;16.60;99.90;;;;;;5088776;28;20035;-70
2022/06/25 03:03:58;;;;;;;0.60;0.60;;;16.60;99.90;;;;;;5107697;28;20116;-70
2022/06/25 03:06:24;;;;;;;0.57;0.57;;;16.60;99.90;;;;;;5111061;28;20096;-70
2022/06/25 03:08:50;;;;;;;0.85;0.50;;;16.60;99.90;;;;;;5111534;28;20429;-70
2022/06/25 03:11:16;;;;;;;;;;;16.40;99.90;;;;;;5095416;28;20035;-71
2022/06/25 03:13:41;;;;;;;0.40;0.35;;;16.40;99.90;;;;;;5111033;28;19964;-71
2022/06/25 03:16:08;;;;;;;0.43;0.40;;;16.50;99.90;;;;;;5109174;28;20051;-71
2022/06/25 03:18:35;;;;;;;0.40;0.40;;;16.50;99.90;;;;;;5088427;28;20047;-71
2022/06/25 03:21:01;;;;;;;0.65;0.60;;;16.60;99.90;;;;;;5103799;28;20071;-71
2022/06/25 03:23:27;;;;;;;0.50;0.38;;;16.30;99.90;;;;;;5094044;28;20104;-71
2022/06/25 03:25:53;;;;;;;;;;;16.50;99.90;;;;;;5112849;28;20039;-70
2022/06/25 03:28:19;;;;;;;0.32;0.32;;;16.50;99.90;;;;;;5110287;28;19999;-70
2022/06/25 03:30:45;;;;;;;0.60;0.60;;;16.40;99.90;;;;;;5111586;28;20079;-70
2022/06/25 03:33:12;;;;;;;0.63;0.50;;;16.30;99.90;;;;;;5110218;28;20082;-70
2022/06/25 03:35:37;;;;;;;0.40;0.40;;;16.50;99.90;;;;;;5108667;28;20061;-70
2022/06/25 03:38:03;;;;;;;0.45;0.45;;;16.40;99.90;;;;;;5110669;28;20051;-70
2022/06/25 03:40:29;;;;;;;0.32;0.32;;;16.40;99.90;;;;;;5111111;28;20032;-71
2022/06/25 03:42:55;;;;;;;0.50;0.50;;;16.40;99.90;;;;;;5110344;28;20070;-71
2022/06/25 03:45:21;;;;;;;0.35;0.35;;;16.30;99.90;;;;;;5110923;28;20074;-71
2022/06/25 03:47:50;;;;;;;0.40;0.40;;;16.50;99.90;;;;;;5110148;28;20494;-71
2022/06/25 03:50:20;;;;;;;0.60;0.50;;;16.40;99.90;;;;;;5108109;28;20044;-71
2022/06/25 03:52:47;;;;;;;0.40;0.40;;;16.50;99.90;;;;;;5108449;28;20040;-71
2022/06/25 03:55:14;;;;;;;0.40;0.40;;;16.30;99.90;;;;;;5109093;28;20477;-71
2022/06/25 03:57:40;;;;;;;1.95;0.60;;;16.40;99.90;;;;;;5110722;28;20379;-71
2022/06/25 04:00:07;;;;;;;0.40;0.40;;;16.30;99.90;;;;;;5090668;28;20097;-71
2022/06/25 04:02:33;;;;;;;1.00;0.40;;;16.50;99.90;;;;;;5104206;28;20036;-71
2022/06/25 04:05:00;;;;;;;0.40;0.40;;;16.30;99.90;;;;;;5109423;28;20045;-71
2022/06/25 04:07:25;;;;;;;;;;;16.50;99.90;;;;;;5111039;28;20639;-71
2022/06/25 04:09:51;;;;;;;0.50;0.50;;;16.30;99.90;;;;;;5111024;28;19919;-71
2022/06/25 04:12:17;;;;;;;0.40;0.40;;;16.50;99.90;;;;;;5110729;28;20502;-71
2022/06/25 04:14:42;;;;;;;0.30;0.30;;;16.60;99.90;;;;;;5109035;28;20040;-71
2022/06/25 04:17:09;;;;;;;0.30;0.30;;;16.60;99.90;;;;;;5073252;28;20048;-71
2022/06/25 04:19:40;;;;;;;;;;;16.60;99.90;;;;;;5108472;28;20115;-71
2022/06/25 04:22:07;;;;;;;0.50;0.50;;;16.60;99.90;;;;;;5108705;28;19924;-71
2022/06/25 04:24:35;;;;;;;0.90;0.60;;;16.40;99.90;;;;;;5105857;28;20053;-71
2022/06/25 04:27:01;;;;;;;0.40;0.40;;;16.70;99.90;;;;;;5109021;28;20040;-71
2022/06/25 04:29:27;;;;;;;0.50;0.50;;;16.70;99.90;;;;;;5111135;28;20066;-71
2022/06/25 04:31:52;;;;;;;0.40;0.40;;;16.50;99.90;;;;;;5111198;28;20479;-71
2022/06/25 04:34:18;;;;;;;0.55;0.55;;;16.50;99.90;;;;;;5094259;28;20406;-71
2022/06/25 04:36:44;;;;;;;0.30;0.30;;;16.60;99.90;;;;;;5092631;28;20475;-71
2022/06/25 04:39:10;;;;;;;;;;;16.80;99.90;;;;;;5080943;28;20044;-71
2022/06/25 04:41:36;;;;;;;0.47;0.47;;;16.70;99.90;;;;;;5118274;27;20056;-71
2022/06/25 04:44:01;;;;;;;0.70;0.70;;;16.70;99.90;;;;;;5109689;28;20108;-70
2022/06/25 04:46:30;;;;;;;1.27;1.17;;;16.60;99.90;;;;;;5109871;28;20044;-71
2022/06/25 04:48:59;;;;;;;1.30;1.20;;;16.70;99.90;;;;;;5111192;28;20108;-71
2022/06/25 04:51:26;;;;;;;1.08;0.80;;;16.70;99.90;;;;;;5092888;28;20399;-71
2022/06/25 04:53:55;;;;;;;0.60;0.60;;;16.70;99.90;;;;;;5110482;28;20084;-71
2022/06/25 04:56:26;;;;;;;0.68;0.60;;;16.70;99.90;;;;;;5101207;28;20043;-71
2022/06/25 04:58:52;;;;;;;0.57;0.57;;;16.90;99.90;;;;;;5110423;28;20060;-71
2022/06/25 05:01:19;;;;;;;0.90;0.57;;;16.90;99.90;;;;;;5110716;28;20047;-71
2022/06/25 05:03:44;;;;;;;0.77;0.70;;;16.90;99.90;;;;;;5110435;28;20119;-71
2022/06/25 05:06:10;;;;;;;0.73;0.70;;;16.90;99.90;;;;;;5110145;28;20118;-71
2022/06/25 05:08:36;;;;;;;0.63;0.60;;;17.00;99.90;;;;;;5109700;28;20122;-71
2022/06/25 05:11:02;;;;;;;0.80;0.77;;;17.00;99.90;;;;;;5089836;28;20056;-70
2022/06/25 05:13:28;;;;;;;;;;;17.00;99.90;;;;;;5108327;28;20046;-71
2022/06/25 05:15:53;;;;;;;0.60;0.60;;;16.90;99.90;;;;;;5111371;27;19916;-72
2022/06/25 05:18:19;;;;;;;;;;;17.00;99.90;;;;;;5114719;27;20116;-71
2022/06/25 05:20:45;;;;;;;0.60;0.60;;;17.00;99.90;;;;;;5111359;27;19925;-71
2022/06/25 05:23:12;;;;;;;0.65;0.60;;;17.00;99.90;;;;;;5110096;28;20105;-71
2022/06/25 05:25:38;;;;;;;1.00;0.90;;;17.20;99.90;;;;;;5110177;28;20036;-71
2022/06/25 05:28:04;;;;;;;1.00;0.90;;;17.20;99.90;;;;;;5109693;28;20061;-71
2022/06/25 05:30:30;;;;;;;;;;;17.10;99.90;;;;;;5110842;28;20118;-71
2022/06/25 05:32:56;;;;;;;1.00;0.90;;;17.30;99.90;;;;;;5093151;28;20280;-71
2022/06/25 05:35:22;;;;;;;0.57;0.57;;;17.30;99.90;;;;;;5110258;28;20039;-71
2022/06/25 05:37:48;;;;;;;0.70;0.70;;;17.20;99.90;;;;;;5109942;28;20792;-71
2022/06/25 05:40:13;;;;;;;;;;;17.40;99.90;;;;;;5110260;28;20050;-71
2022/06/25 05:42:39;;;;;;;0.90;0.90;;;17.40;99.90;;;;;;5109841;28;19920;-71
2022/06/25 05:45:05;;;;;;;;;;;17.50;99.90;;;;;;5093428;28;20061;-71
2022/06/25 05:47:31;;;;;;;1.10;1.00;;;17.40;99.90;;;;;;5109776;28;19922;-71
2022/06/25 05:49:56;;;;;;;;;;;17.60;99.90;;;;;;5110350;28;20043;-71
2022/06/25 05:52:22;;;;;;;0.80;0.80;;;17.60;99.90;;;;;;5109668;28;19916;-71
2022/06/25 05:54:48;;;;;;;0.80;0.80;;;17.70;99.90;;;;;;5106317;28;20082;-71
2022/06/25 05:57:14;;;;;;;1.00;0.80;;;17.60;99.90;;;;;;5094435;28;21127;-71
2022/06/25 05:59:40;;;;;;;;;;;17.80;99.90;;;;;;5112484;28;20087;-70
2022/06/25 06:02:06;;;;;;;0.90;0.90;;;17.70;99.90;;;;;;5109657;28;19915;-70
2022/06/25 06:04:32;;;;;;;;;;;17.90;99.90;;;;;;5113454;28;20046;-70
2022/06/25 06:06:59;;;;;;;1.30;1.00;;;17.90;99.90;;;;;;5112265;28;19920;-69
2022/06/25 06:09:27;;;;;;;1.10;1.00;;;18.10;99.90;;;;;;5108390;28;20079;-70
2022/06/25 06:11:54;;;;;;;1.27;1.17;;;18.10;99.90;;;;;;5110394;28;20031;-67
2022/06/25 06:14:21;;;;;;;1.25;1.00;;;18.10;99.90;;;;;;5112802;28;20058;-67
2022/06/25 06:16:47;;;;;;;0.85;0.85;;;18.40;99.90;;;;;;5110924;28;20050;-68
2022/06/25 06:19:12;;;;;;;;;;;18.80;99.90;;;;;;5112409;28;20028;-67
2022/06/25 06:21:38;;;;;;;1.80;1.27;;;19.10;99.90;;;;;;5110801;28;20275;-67
2022/06/25 06:24:04;;;;;;;;;;;19.10;99.90;;;;;;5112041;28;20058;-67
2022/06/25 06:26:29;;;;;;;1.40;1.20;;;19.10;99.90;;;;;;5111929;28;19915;-66
2022/06/25 06:28:55;;;;;;;;;;;19.30;99.90;;;;;;5093836;28;20087;-69
2022/06/25 06:31:20;;;;;;;1.45;1.20;;;19.30;99.90;;;;;;5112794;28;19915;-72
2022/06/25 06:33:46;;;;;;;;;;;19.30;99.90;;;;;;5113154;28;20068;-71
2022/06/25 06:36:12;;;;;;;1.73;1.30;;;19.30;99.90;;;;;;5095509;28;20716;-70
2022/06/25 06:38:38;;;;;;;1.02;0.80;;;19.40;99.90;;;;;;5111358;28;20039;-70
2022/06/25 06:41:04;;;;;;;1.52;1.23;;;19.50;99.90;;;;;;5099510;27;20046;-70
2022/06/25 06:43:30;;;;;;;;;;;19.50;99.90;;;;;;5103201;27;20034;-76
2022/06/25 06:45:55;;;;;;;1.38;1.08;;;19.40;99.90;;;;;;5102392;28;19919;-76
2022/06/25 06:48:21;;;;;;;;;;;19.60;99.90;;;;;;5110769;27;20043;-76
2022/06/25 06:50:47;;;;;;;0.98;0.90;;;19.50;99.90;;;;;;5116449;27;19923;-76
2022/06/25 06:53:12;;;;;;;;;;;19.60;99.90;;;;;;5105257;27;20496;-76
2022/06/25 06:55:38;;;;;;;1.33;1.10;;;19.70;99.90;;;;;;5103011;28;19915;-76
2022/06/25 06:58:03;;;;;;;;;;;19.80;99.90;;;;;;5107548;28;20143;-76
2022/06/25 07:00:29;;;;;;;1.30;1.10;;;19.90;99.90;;;;;;5112281;28;19959;-76
2022/06/25 07:02:55;;;;;;;;;;;19.90;99.90;;;;;;5083295;28;20043;-76
2022/06/25 07:05:21;;;;;;;1.13;0.93;;;20.10;99.90;;;;;;5106010;27;19919;-76
2022/06/25 07:07:47;;;;;;;;;;;20.00;99.90;;;;;;5107391;28;20055;-76
2022/06/25 07:10:14;;;;;;;1.98;1.02;;;20.20;99.90;;;;;;5113742;28;19939;-75
2022/06/25 07:12:40;;;;;;;0.70;0.70;;;20.20;99.90;;;;;;5113674;28;20449;-75
2022/06/25 07:15:05;;;;;;;;;;;20.20;99.90;;;;;;5106746;28;20039;-76
2022/06/25 07:17:31;;;;;;;0.82;0.80;;;20.40;99.90;;;;;;5103455;28;19923;-77
2022/06/25 07:19:57;;;;;;;;;;;20.40;99.90;;;;;;5111596;28;20463;-77
2022/06/25 07:22:24;;;;;;;0.93;0.70;;;20.60;99.90;;;;;;5113185;28;20347;-77
2022/06/25 07:24:51;;;;;;;0.80;0.68;;;20.80;99.90;;;;;;5106910;28;20050;-76
2022/06/25 07:27:18;;;;;;;0.90;0.60;;;20.90;99.90;;;;;;5098918;28;20043;-79
2022/06/25 07:29:44;;;;;;;0.60;0.50;;;21.00;99.90;;;;;;5093201;28;20036;-80
2022/06/25 07:32:10;;;;;;;0.63;0.63;;;21.10;99.90;;;;;;5103282;28;20039;-78
2022/06/25 07:34:36;;;;;;;0.95;0.70;;;21.20;99.90;;;;;;5102323;28;20043;-80
2022/06/25 07:37:02;;;;;;;1.60;1.10;;;21.30;99.90;;;;;;5098313;28;20471;-81
2022/06/25 07:39:28;;;;;;;0.80;0.70;;;21.30;99.90;;;;;;5077075;28;20047;-81
2022/06/25 07:41:54;;;;;;;1.90;0.90;;;21.40;99.90;;;;;;5100628;28;20044;-80
2022/06/25 07:44:20;;;;;;;0.77;0.60;;;21.40;99.90;;;;;;5096385;28;20422;-81
2022/06/25 07:46:45;;;;;;;1.17;0.60;;;21.50;99.90;;;;;;5104382;28;20031;-81
2022/06/25 07:49:11;;;;;;;0.70;0.70;;;21.70;99.90;;;;;;5111704;28;20081;-81
2022/06/25 07:54:26;;;;;;;0.57;0.57;;;21.90;99.90;;;;;;5109608;28;20044;-75
2022/06/25 07:56:52;;;;;;;0.80;0.50;;;22.00;99.90;;;;;;5099623;28;20035;-75
2022/06/25 07:59:18;;;;;;;0.55;0.55;;;22.30;99.90;;;;;;5107713;28;20043;-76
2022/06/25 08:01:44;;;;;;;0.50;0.50;;;22.40;99.90;;;;;;5109493;28;20563;-77
2022/06/25 08:04:10;;;;;;;1.10;0.60;;;22.50;99.90;;;;;;5110043;28;20042;-77
2022/06/25 08:06:38;;;;;;;0.77;0.60;;;22.60;99.90;;;;;;5111282;28;20028;-77
2022/06/25 08:09:04;;;;;;;0.88;0.60;;;22.50;99.90;;;;;;5110625;28;20047;-76
2022/06/25 08:11:30;;;;;;;2.80;0.70;;;22.60;99.90;;;;;;5109493;28;20051;-77
2022/06/25 08:13:57;;;;;;;0.70;0.52;;;22.70;99.90;;;;;;5109964;28;20035;-77
2022/06/25 08:16:25;;;;;;;0.70;0.70;;;22.70;99.90;;;;;;5108898;28;20124;-76
2022/06/25 08:18:51;;;;;;;0.50;0.50;;;22.90;99.90;;;;;;5109812;28;20176;-77
2022/06/25 08:21:18;;;;;;;1.00;0.55;;;23.10;99.90;;;;;;5090199;28;20075;-77
2022/06/25 08:23:43;;;;;;;0.40;0.40;;;23.10;99.90;;;;;;5108584;28;20508;-76
2022/06/25 08:26:09;;;;;;;0.68;0.50;;;23.20;99.90;;;;;;5091127;28;20069;-79
2022/06/25 08:28:35;;;;;;;0.80;0.30;;;23.60;99.90;;;;;;5084747;28;20402;-78
2022/06/25 08:31:00;;;;;;;0.70;0.60;;;23.90;99.90;;;;;;5104940;28;20042;-85
2022/06/25 08:33:26;;;;;;;0.65;0.50;;;23.80;99.90;;;;;;5107070;28;20044;-78
2022/06/25 08:35:52;;;;;;;1.17;0.50;;;24.00;99.90;;;;;;5110413;28;20620;-81
2022/06/25 08:38:18;;;;;;;0.45;0.40;;;24.20;99.90;;;;;;5074571;28;20043;-75
2022/06/25 08:40:44;;;;;;;0.43;0.43;;;24.40;99.90;;;;;;5094976;28;20403;-75
2022/06/25 08:43:10;;;;;;;0.70;0.50;;;24.20;99.90;;;;;;5097592;28;20044;-75
2022/06/25 08:45:36;;;;;;;0.95;0.50;;;24.00;99.90;;;;;;5078799;28;20032;-76
2022/06/25 08:48:10;;;;;;;1.00;0.50;;;23.50;99.90;;;;;;5109600;28;20048;-76
2022/06/25 08:50:36;;;;;;;0.68;0.65;;;23.20;99.90;;;;;;5107362;28;20043;-76
2022/06/25 08:53:03;;;;;;;0.68;0.55;;;22.80;99.90;;;;;;5106331;28;20072;-75
2022/06/25 08:55:34;;;;;;;0.45;0.43;;;22.60;99.90;;;;;;5099735;28;20048;-75
2022/06/25 08:58:01;;;;;;;0.90;0.60;;;22.50;99.90;;;;;;5091974;28;20052;-76
2022/06/25 09:00:28;;;;;;;1.25;0.50;;;22.40;99.90;;;;;;5109136;28;20039;-75
2022/06/25 09:02:54;;;;;;;0.40;0.40;;;22.60;99.90;;;;;;5110210;28;20507;-73
2022/06/25 09:05:31;;;;;;;0.60;0.50;;;22.80;99.90;;;;;;5107744;28;20043;-74
2022/06/25 09:07:58;;;;;;;0.90;0.70;;;22.70;99.90;;;;;;5111445;28;20071;-75
2022/06/25 09:10:26;;;;;;;1.02;0.50;;;22.80;99.90;;;;;;5108100;28;20483;-72
2022/06/25 09:12:54;;;;;;;1.27;0.80;;;22.80;99.90;;;;;;5097674;28;20126;-75
2022/06/25 09:15:34;;;;;;;0.30;0.30;;;22.80;99.90;;;;;;5087072;28;20051;-75
2022/06/25 09:18:09;;;;;;;0.80;0.50;;;22.90;99.90;;;;;;5092961;28;20057;-75
2022/06/25 09:20:36;;;;;;;0.80;0.70;;;23.00;99.90;;;;;;5110391;28;20111;-77
2022/06/25 09:23:05;;;;;;;0.60;0.60;;;23.00;99.90;;;;;;5092779;28;20368;-78
2022/06/25 09:25:33;;;;;;;0.77;0.60;;;22.80;99.90;;;;;;5110014;28;20431;-79
2022/06/25 09:27:59;;;;;;;0.68;0.50;;;22.60;99.90;;;;;;5093004;28;20054;-81
2022/06/25 09:30:27;;;;;;;1.10;0.50;;;22.50;99.90;;;;;;5109686;28;20031;-78
2022/06/25 09:32:58;;;;;;;0.88;0.35;;;22.40;99.90;;;;;;5097762;28;20501;-80
2022/06/25 09:35:38;;;;;;;0.73;0.63;;;22.40;99.90;;;;;;5109702;28;20053;-80
2022/06/25 09:38:08;;;;;;;1.00;0.43;;;22.40;99.90;;;;;;5103600;28;20495;-79
2022/06/25 09:40:35;;;;;;;0.40;0.30;;;22.70;99.90;;;;;;5109924;28;20039;-79
2022/06/25 09:43:17;;;;;;;0.40;0.40;;;22.70;99.90;;;;;;5109887;28;20036;-79
2022/06/25 09:45:48;;;;;;;0.65;0.40;;;22.90;99.90;;;;;;5109722;28;20097;-79
2022/06/25 09:48:20;;;;;;;0.30;0.22;;;23.30;99.90;;;;;;5110267;28;20101;-80
2022/06/25 09:51:07;;;;;;;0.93;0.40;;;23.70;99.90;;;;;;5109885;28;20118;-79
2022/06/25 09:53:35;;;;;;;0.68;0.40;;;23.60;99.90;;;;;;5110013;28;20043;-80
2022/06/25 09:56:02;;;;;;;0.50;0.40;;;23.80;99.90;;;;;;5109733;28;20546;-79
2022/06/25 09:58:31;;;;;;;0.57;0.50;;;23.90;99.90;;;;;;5109763;28;20055;-80
2022/06/25 10:00:57;;;;;;;0.50;0.50;;;23.80;99.90;;;;;;5109649;28;20123;-79
2022/06/25 10:03:24;;;;;;;0.70;0.50;;;23.70;99.90;;;;;;5093384;28;20116;-80
2022/06/25 10:05:51;;;;;;;0.55;0.50;;;23.70;99.90;;;;;;5110007;28;20627;-79
2022/06/25 10:08:19;;;;;;;0.50;0.50;;;23.80;99.90;;;;;;5109800;28;20069;-78
2022/06/25 10:10:48;;;;;;;0.40;0.40;;;23.70;99.90;;;;;;5109503;28;20051;-77
2022/06/25 10:13:15;;;;;;;0.77;0.47;;;23.70;99.90;;;;;;5109667;28;20047;-78
2022/06/25 10:15:41;;;;;;;0.50;0.40;;;23.70;99.90;;;;;;5113233;28;20051;-79
2022/06/25 10:18:11;;;;;;;0.30;0.30;;;23.90;99.90;;;;;;5094508;28;20036;-79
2022/06/25 10:20:39;;;;;;;0.40;0.30;;;24.00;99.90;;;;;;5096638;28;20475;-78
2022/06/25 10:23:06;;;;;;;0.40;0.30;;;24.00;99.90;;;;;;5060494;28;20044;-79
2022/06/25 10:25:33;;;;;;;0.30;0.30;;;24.00;99.90;;;;;;5103360;27;20162;-78
2022/06/25 10:28:03;;;;;;;0.35;0.30;;;23.90;99.90;;;;;;5098332;27;20458;-78
2022/06/25 10:30:47;;;;;;;0.20;0.20;;;23.80;99.90;;;;;;5081952;28;20348;-79
2022/06/25 10:33:15;;;;;;;0.30;0.20;;;23.90;99.90;;;;;;5082537;28;20040;-76
2022/06/25 10:35:41;;;;;;;0.20;0.20;;;23.90;99.90;;;;;;5104757;28;20050;-78
2022/06/25 10:38:07;;;;;;;0.30;0.30;;;23.90;99.90;;;;;;5105444;28;20046;-78
2022/06/25 10:40:45;;;;;;;0.52;0.25;;;23.80;99.90;;;;;;5113328;28;20039;-78
2022/06/25 10:43:35;;;;;;;0.20;0.20;;;23.70;99.90;;;;;;5113142;28;20071;-79
2022/06/25 10:46:26;;;;;;;0.30;0.30;;;23.40;99.90;;;;;;5095870;28;20031;-79
2022/06/25 10:49:02;;;;;;;0.50;0.30;;;23.30;99.90;;;;;;5113462;28;20057;-80
2022/06/25 10:51:36;;;;;;;0.20;0.20;;;23.30;99.90;;;;;;5113280;28;20047;-80
2022/06/25 10:54:03;;;;;;;0.35;0.30;;;23.10;99.90;;;;;;5110591;28;20157;-80
2022/06/25 10:56:34;;;;;;;0.40;0.40;;;23.00;99.90;;;;;;5098115;28;20082;-79
2022/06/25 10:59:00;;;;;;;0.60;0.40;;;22.90;99.90;;;;;;5095850;28;20059;-79
2022/06/25 11:01:28;;;;;;;0.65;0.35;;;22.80;99.90;;;;;;5095823;28;20093;-79
2022/06/25 11:03:56;;;;;;;0.40;0.40;;;22.60;99.90;;;;;;5110691;28;20467;-79
2022/06/25 11:06:38;;;;;;;0.30;0.22;;;22.50;99.90;;;;;;5111511;28;20047;-79
2022/06/25 11:09:13;;;;;;;0.68;0.40;;;22.40;99.90;;;;;;5106464;27;20035;-80
2022/06/25 11:11:40;;;;;;;0.30;0.30;;;22.30;99.90;;;;;;5108711;28;20032;-79
2022/06/25 11:14:22;;;;;;;0.68;0.40;;;22.20;99.90;;;;;;5110315;28;20054;-79
2022/06/25 11:16:49;;;;;;;0.60;0.30;;;22.10;99.90;;;;;;5102922;27;20047;-79
2022/06/25 11:19:15;;;;;;;0.30;0.20;;;22.10;99.90;;;;;;5112533;28;20035;-79
2022/06/25 11:21:44;;;;;;;0.35;0.30;;;21.90;99.90;;;;;;5107524;28;20038;-80
2022/06/25 11:24:29;;;;;;;0.15;0.15;;;21.80;99.90;;;;;;5111996;28;20553;-79
2022/06/25 11:29:48;;;;;;;0.35;0.30;;;21.70;99.90;;;;;;5112107;28;20458;-77
2022/06/25 11:32:25;;;;;;;0.30;0.30;;;21.70;99.90;;;;;;5095075;28;20126;-75
2022/06/25 11:34:53;;;;;;;0.40;0.40;;;21.80;99.90;;;;;;5111701;28;20043;-76
2022/06/25 11:37:19;;;;;;;0.60;0.30;;;21.80;99.90;;;;;;5111785;28;20051;-75
2022/06/25 11:39:46;;;;;;;0.40;0.30;;;21.90;99.90;;;;;;5111720;28;20115;-76
2022/06/25 11:42:13;;;;;;;0.30;0.30;;;22.00;99.90;;;;;;5094345;28;20478;-77
2022/06/25 11:44:46;;;;;;;0.55;0.30;;;22.20;99.90;;;;;;5111782;28;20412;-77
2022/06/25 11:47:24;;;;;;;0.20;0.20;;;22.40;99.90;;;;;;5091646;28;20031;-76
2022/06/25 11:49:50;;;;;;;0.30;0.30;;;22.70;99.90;;;;;;5111739;28;20422;-77
2022/06/25 11:52:19;;;;;;;0.88;0.30;;;23.10;99.90;;;;;;5111317;28;20493;-77
2022/06/25 11:54:46;;;;;;;0.50;0.40;;;23.40;99.90;;;;;;5103824;27;20121;-74
2022/06/25 11:57:18;;;;;;;0.30;0.30;;;23.80;99.90;;;;;;5109531;27;20062;-74
2022/06/25 11:59:44;;;;;;;0.50;0.40;;;24.10;99.90;;;;;;5136502;27;20069;-75
2022/06/25 12:02:11;;;;;;;0.40;0.30;;;24.10;99.90;;;;;;5116510;27;20119;-76
2022/06/25 12:04:49;;;;;;;0.30;0.20;;;24.10;99.90;;;;;;5120972;27;20035;-76
2022/06/25 12:07:20;;;;;;;0.20;0.20;;;24.10;99.90;;;;;;5115434;27;20031;-76
2022/06/25 12:09:46;;;;;;;0.50;0.35;;;23.80;99.90;;;;;;5115064;27;20069;-75
2022/06/25 12:12:12;;;;;;;0.50;0.30;;;23.60;99.90;;;;;;5088470;28;20047;-75
2022/06/25 12:14:38;;;;;;;0.50;0.30;;;23.40;99.90;;;;;;5109378;27;20043;-76
2022/06/25 12:17:05;;;;;;;0.20;0.20;;;23.30;99.90;;;;;;5115121;27;20485;-75
2022/06/25 12:19:53;;;;;;;0.50;0.22;;;23.10;99.90;;;;;;5115311;27;20043;-76
2022/06/25 12:22:19;;;;;;;0.52;0.25;;;23.00;99.90;;;;;;5103899;27;20545;-75
2022/06/25 12:24:46;;;;;;;0.47;0.30;;;22.80;99.90;;;;;;5114813;27;20045;-75
2022/06/25 12:27:12;;;;;;;1.00;0.30;;;22.60;99.90;;;;;;5101444;27;20490;-76
2022/06/25 12:29:37;;;;;;;1.25;0.50;;;22.40;99.90;;;;;;5115537;27;20049;-76
2022/06/25 12:32:03;;;;;;;0.88;0.50;;;22.20;99.90;;;;;;5114820;27;20657;-76
2022/06/25 12:34:29;;;;;;;0.40;0.40;;;21.90;99.90;;;;;;5098087;27;20516;-76
2022/06/25 12:36:56;;;;;;;1.42;0.70;;;21.60;99.90;;;;;;5111756;27;20047;-76
2022/06/25 12:39:30;;;;;;;1.45;0.55;;;21.20;99.90;;;;;;5102467;27;20039;-76
2022/06/25 12:41:56;;;;;;;0.77;0.55;;;21.10;99.90;;;;;;5112943;27;20043;-75
2022/06/25 12:44:21;;;;;;;0.77;0.50;;;21.00;99.90;;;;;;5085548;27;20069;-76
2022/06/25 12:47:07;;;;;;;1.35;0.52;;;20.90;99.90;;;;;;5098016;27;20114;-75
2022/06/25 12:49:42;;;;;;;0.60;0.55;;;20.90;99.90;;;;;;5100832;27;20039;-75
2022/06/25 12:52:08;;;;;;;1.55;0.60;;;20.80;99.90;;;;;;5114750;27;20135;-76
2022/06/25 12:54:42;;;;;;;2.50;0.60;;;20.80;99.90;;;;;;5110666;27;20085;-75
2022/06/25 12:57:08;;;;;;;0.63;0.50;;;20.80;99.90;;;;;;5093984;28;20062;-75
2022/06/25 12:59:34;;;;;;;1.17;0.50;;;20.90;99.90;;;;;;5094084;27;20043;-76
2022/06/25 13:01:59;;;;;;;1.15;0.70;;;20.90;99.90;;;;;;5105304;28;20513;-76
2022/06/25 13:04:25;;;;;;;1.33;0.98;;;21.00;99.90;;;;;;5109686;27;20107;-75
2022/06/25 13:06:51;;;;;;;1.55;0.82;;;21.00;99.90;;;;;;5090352;28;20043;-75